Latest Weather Observations for Kuitpo

IDS60901

Issued at 9:41 am CST Monday 26 September 2016 (issued every 10 minutes, with the page automatically refreshed every 10 minutes)

About weather observations | Map of Adelaide area stations | Latest observations for Adelaide area | Other Formats
Station Details ID: 023887 Name: KUITPO FOREST RESERVE Lat: -35.17 Lon: 138.68 Height: 365.0 m
Data from the previous 72 hours. | See also: Recent months at Kuitpo
Date/Time
CST
Temp
°C
App
Temp
°C
Dew
Point
°C
Rel
Hum
%
Delta-T
°C
Wind Press
QNH
hPa
Press
MSL
hPa
Rain since
9am
mm
Dir  Spd
km/h
Gust
km/h
Spd
kts
Gust
kts
26/09:30am 12.3 6.6 3.0 53 4.2 NW 22 50 12 27 1010.2 1010.1 0.0
26/09:00am 12.0 7.2 4.5 60 3.5 NW 19 28 10 15 1010.1 1010.0 0.0
26/08:30am 11.6 7.4 5.9 68 2.7 NNW 17 30 9 16 1010.2 1010.1 0.0
26/08:00am 10.7 6.1 5.5 70 2.4 NNW 19 26 10 14 1010.1 1010.0 0.0
26/07:30am 9.8 6.1 6.5 80 1.6 NNW 15 28 8 15 1010.0 1009.9 0.0
26/07:00am 9.3 5.6 6.2 81 1.5 NNW 15 24 8 13 1010.0 1009.9 0.0
26/06:30am 7.4 3.7 4.5 82 1.3 N 13 19 7 10 1010.2 1010.1 0.0
26/06:00am 7.0 3.1 3.4 78 1.6 NNW 13 20 7 11 1010.2 1010.1 0.0
26/05:30am 6.8 2.8 3.1 77 1.6 N 13 17 7 9 1010.0 1009.9 0.0
26/05:00am 6.4 3.2 3.2 80 1.4 N 9 17 5 9 1010.0 1009.9 0.0
26/04:30am 7.5 3.9 3.2 74 1.9 N 11 22 6 12 1010.1 1010.0 0.0
26/04:00am 6.6 3.2 3.9 83 1.2 N 11 15 6 8 1010.0 1009.9 0.0
26/03:30am 6.1 2.8 4.4 89 0.7 NNE 11 19 6 10 1009.8 1009.7 0.0
26/03:00am 7.0 3.5 5.6 91 0.6 N 13 17 7 9 1010.7 1010.5 0.0
26/02:30am 6.4 3.3 5.4 93 0.5 N 11 15 6 8 1011.4 1011.2 0.0
26/02:00am 6.0 3.2 5.0 93 0.4 N 9 13 5 7 1011.9 1011.7 0.0
26/01:30am 6.7 4.0 5.5 92 0.5 N 9 13 5 7 1012.2 1012.1 0.0
26/01:00am 6.6 4.2 5.4 92 0.5 N 7 9 4 5 1012.8 1012.7 0.0
26/12:30am 6.9 4.8 5.7 92 0.5 NNE 6 7 3 4 1012.9 1012.8 0.0
26/12:00am 8.0 5.9 6.6 91 0.7 NW 7 11 4 6 1013.0 1012.9 0.0
 
Date/Time
CST
Temp
°C
App
Temp
°C
Dew
Point
°C
Rel
Hum
%
Delta-T
°C
Wind Press
QNH
hPa
Press
MSL
hPa
Rain since
9am
mm
Dir  Spd
km/h
Gust
km/h
Spd
kts
Gust
kts
25/11:30pm 8.3 5.5 6.8 90 0.7 NW 11 15 6 8 1013.1 1013.0 0.0
25/11:00pm 8.6 5.4 6.9 89 0.8 NW 13 17 7 9 1013.5 1013.3 0.0
25/10:30pm 8.6 5.3 6.4 86 1.0 NW 13 17 7 9 1013.7 1013.5 0.0
25/10:00pm 8.7 5.4 6.5 86 1.0 NW 13 17 7 9 1013.9 1013.7 0.0
25/09:30pm 8.2 5.6 6.2 87 0.9 NNW 9 13 5 7 1013.7 1013.5 0.0
25/09:00pm 8.5 5.6 6.5 87 0.9 NW 11 15 6 8 1013.6 1013.4 0.0
25/08:30pm 8.6 5.7 6.4 86 1.0 NW 11 15 6 8 1013.6 1013.4 0.0
25/08:00pm 8.9 6.0 6.5 85 1.1 NW 11 15 6 8 1013.5 1013.3 0.0
25/07:30pm 8.9 5.9 6.2 83 1.3 NW 11 15 6 8 1013.2 1013.1 0.0
25/07:00pm 8.8 6.2 6.1 83 1.3 WNW 9 13 5 7 1012.9 1012.8 0.0
25/06:30pm 9.2 6.9 5.9 80 1.5 NW 7 11 4 6 1012.5 1012.4 0.0
25/06:00pm 10.2 7.2 5.8 74 2.1 WNW 11 17 6 9 1012.5 1012.4 0.0
25/05:30pm 10.6 6.4 5.6 71 2.3 WNW 17 26 9 14 1012.4 1012.3 0.0
25/05:00pm 11.0 6.7 5.3 68 2.7 WNW 17 30 9 16 1012.1 1012.0 0.0
25/04:30pm 11.8 7.5 5.2 64 3.1 WNW 17 26 9 14 1012.0 1011.8 0.0
25/04:00pm 12.2 8.0 5.8 65 3.1 NW 17 30 9 16 1012.0 1011.8 0.0
25/03:30pm 12.7 9.3 6.1 64 3.2 WNW 13 20 7 11 1012.0 1011.8 0.0
25/03:00pm 11.5 7.2 5.2 65 3.0 WNW 17 26 9 14 1012.2 1012.1 0.0
25/02:30pm 11.3 7.2 4.5 63 3.1 WNW 15 24 8 13 1012.2 1012.1 0.0
25/02:00pm 11.7 7.2 4.0 59 3.5 W 17 24 9 13 1012.5 1012.4 0.0
25/01:30pm 12.9 8.8 6.0 63 3.3 WSW 17 28 9 15 1012.6 1012.5 0.0
25/01:00pm 12.1 7.2 2.0 50 4.4 W 17 24 9 13 1012.9 1012.8 0.0
25/12:30pm 11.9 7.5 2.6 53 4.1 W 15 20 8 11 1013.1 1013.0 0.0
25/12:00pm 11.7 7.9 3.7 58 3.6 W 13 20 7 11 1013.4 1013.2 0.0
25/11:30am 10.5 7.9 4.0 64 2.9 WSW 7 11 4 6 1013.8 1013.6 0.0
25/11:00am 10.3 6.6 4.2 66 2.8 WNW 13 19 7 10 1013.9 1013.7 0.0
25/10:30am 9.9 6.4 5.3 73 2.1 W 13 22 7 12 1014.2 1014.0 0.0
25/10:00am 10.0 6.4 5.2 72 2.2 WSW 13 20 7 11 1014.2 1014.0 0.0
25/09:30am 9.9 6.4 5.5 74 2.0 WNW 13 19 7 10 1014.2 1014.0 0.0
25/09:00am 9.7 6.1 4.9 72 2.2 W 13 22 7 12 1014.3 1014.1 2.6
25/08:30am 8.9 5.3 5.1 77 1.7 WSW 13 20 7 11 1014.2 1014.0 2.6
25/08:00am 8.6 5.9 5.4 80 1.5 W 9 15 5 8 1014.1 1013.9 2.6
25/07:30am 7.9 5.4 5.0 82 1.3 WSW 7 11 4 6 1013.6 1013.4 2.6
25/07:00am 7.7 5.2 4.8 82 1.3 WSW 7 11 4 6 1013.1 1013.0 2.6
25/06:30am 6.2 3.2 4.2 87 0.9 WSW 9 13 5 7 1012.7 1012.6 2.6
25/06:00am 5.9 2.9 4.2 89 0.7 WSW 9 11 5 6 1012.4 1012.3 2.6
25/05:30am 6.0 3.0 4.3 89 0.7 WSW 9 13 5 7 1011.8 1011.6 2.6
25/05:00am 5.8 2.8 4.3 90 0.7 WSW 9 13 5 7 1011.7 1011.5 2.6
25/04:30am 6.1 2.8 4.7 91 0.6 WSW 11 15 6 8 1011.5 1011.3 2.6
25/04:00am 6.2 3.3 4.7 90 0.7 WSW 9 11 5 6 1011.3 1011.1 2.6
25/03:30am 5.8 2.8 4.1 89 0.7 WSW 9 13 5 7 1011.1 1010.9 2.6
25/03:00am 6.5 2.4 4.5 87 0.9 WSW 15 22 8 12 1010.7 1010.5 2.6
25/02:30am 6.1 2.8 4.3 88 0.8 SW 11 15 6 8 1010.5 1010.3 2.6
25/02:00am 6.3 3.3 4.3 87 0.9 W 9 13 5 7 1011.0 1010.8 2.6
25/01:30am 6.5 2.8 4.2 85 1.0 WSW 13 20 7 11 1011.0 1010.8 2.6
25/01:00am 6.7 2.6 4.2 84 1.1 SW 15 24 8 13 1011.0 1010.8 2.6
25/12:30am 6.6 2.0 3.6 81 1.3 SW 17 28 9 15 1011.0 1010.8 2.6
25/12:00am 6.8 2.9 3.2 78 1.5 WSW 13 19 7 10 1011.0 1010.8 2.6
 
Date/Time
CST
Temp
°C
App
Temp
°C
Dew
Point
°C
Rel
Hum
%
Delta-T
°C
Wind Press
QNH
hPa
Press
MSL
hPa
Rain since
9am
mm
Dir  Spd
km/h
Gust
km/h
Spd
kts
Gust
kts
24/11:30pm 6.5 2.5 3.1 79 1.5 SW 13 20 7 11 1010.9 1010.7 2.6
24/11:00pm 7.1 2.8 3.5 78 1.6 WSW 15 22 8 12 1010.9 1010.7 2.6
24/10:30pm 7.0 2.5 4.0 81 1.3 SW 17 33 9 18 1010.8 1010.6 2.6
24/10:00pm 7.5 3.1 4.8 83 1.2 SW 17 26 9 14 1010.8 1010.6 2.6
24/09:30pm 7.5 2.7 4.6 82 1.3 SW 19 28 10 15 1010.7 1010.5 2.6
24/09:00pm 7.4 3.0 4.5 82 1.3 SW 17 28 9 15 1010.5 1010.3 2.6
24/08:30pm 7.7 3.7 4.7 81 1.3 SW 15 22 8 12 1010.1 1010.0 2.6
24/08:00pm 8.1 4.5 4.9 80 1.4 SW 13 20 7 11 1009.6 1009.4 2.6
24/07:30pm 8.5 3.9 5.4 81 1.4 SW 19 28 10 15 1009.1 1008.9 2.6
24/07:00pm 9.2 4.5 6.1 81 1.5 SW 20 32 11 17 1008.5 1008.3 2.6
24/06:30pm 9.6 5.9 6.3 80 1.6 SW 15 24 8 13 1008.0 1007.8 2.6
24/06:00pm 10.1 6.2 7.2 82 1.4 SW 17 24 9 13 1007.6 1007.4 2.6
24/05:30pm 11.0 7.3 7.9 81 1.5 SW 17 28 9 15 1007.0 1006.8 2.6
24/05:00pm 11.6 8.1 8.6 82 1.5 SW 17 24 9 13 1006.3 1006.1 2.6
24/04:30pm 11.9 8.1 8.9 82 1.5 WSW 19 32 10 17 1005.8 1005.6 2.6
24/04:00pm 12.6 8.8 8.9 78 1.9 WSW 19 32 10 17 1005.4 1005.2 2.6
24/03:30pm 12.9 9.4 10.8 87 1.1 WSW 20 35 11 19 1005.1 1004.9 2.6
24/03:00pm 12.0 8.8 10.1 88 1.0 WSW 17 33 9 18 1004.8 1004.5 2.6
24/02:30pm 11.9 8.3 10.0 88 1.0 WSW 19 33 10 18 1004.5 1004.3 2.6
24/02:00pm 11.7 8.7 10.8 94 0.5 W 17 26 9 14 1004.7 1004.4 2.6
24/01:30pm 11.2 7.8 10.7 97 0.3 W 19 30 10 16 1004.7 1004.4 2.6
24/01:00pm 11.0 8.4 10.8 99 0.1 W 15 26 8 14 1004.7 1004.4 2.6
24/12:30pm 10.8 7.2 10.6 99 0.1 W 20 32 11 17 1004.7 1004.4 2.6
24/12:00pm 10.2 6.0 9.9 98 0.2 W 22 35 12 19 1004.8 1004.5 2.2
24/11:30am 11.6 8.2 11.4 99 0.1 NW 20 33 11 18 1004.5 1004.3 0.8
24/11:00am 11.6 8.2 11.4 99 0.1 NW 20 32 11 17 1004.4 1004.2 0.8
24/10:30am 11.0 7.5 10.8 99 0.1 NW 20 32 11 17 1004.4 1004.2 0.8
24/10:00am 10.8 6.4 10.5 98 0.2 NW 24 37 13 20 1004.5 1004.3 0.6
24/09:30am 10.9 6.9 10.4 97 0.3 NNW 22 37 12 20 1004.5 1004.3 0.6
24/09:00am 10.9 7.8 10.3 96 0.3 NNW 17 32 9 17 1004.5 1004.3 1.8
24/08:30am 11.1 8.0 10.3 95 0.4 NNW 17 28 9 15 1004.7 1004.4 0.8
24/08:00am 11.3 7.7 10.4 94 0.5 NW 20 32 11 17 1004.8 1004.5 0.2
24/07:30am 11.7 8.5 10.1 90 0.8 NNW 17 32 9 17 1004.8 1004.5 0.0
24/07:00am 12.2 8.4 9.8 85 1.2 NNW 20 37 11 20 1004.4 1004.2 0.0
24/06:30am 13.0 8.8 8.1 72 2.5 NNW 20 35 11 19 1004.1 1003.9 0.0
24/06:00am 12.9 9.0 6.9 67 3.0 N 17 33 9 18 1003.7 1003.5 0.0
24/05:30am 13.4 9.6 5.8 60 3.7 N 15 28 8 15 1003.4 1003.2 0.0
24/05:00am 13.9 10.0 5.3 56 4.1 N 15 24 8 13 1003.4 1003.2 0.0
24/04:30am 14.4 9.7 5.0 53 4.5 NNW 19 28 10 15 1003.2 1003.0 0.0
24/04:00am 14.4 10.4 5.0 53 4.5 NNW 15 28 8 15 1002.9 1002.7 0.0
24/03:30am 14.8 10.0 4.8 51 4.8 N 19 33 10 18 1003.4 1003.2 0.0
24/03:00am 14.7 9.8 5.0 52 4.7 N 20 32 11 17 1003.9 1003.7 0.0
24/02:30am 14.6 10.2 4.9 52 4.6 N 17 33 9 18 1003.9 1003.7 0.0
24/02:00am 14.2 10.2 4.8 53 4.5 N 15 28 8 15 1004.2 1004.0 0.0
24/01:30am 13.5 10.3 5.2 57 4.0 N 11 19 6 10 1004.9 1004.6 0.0
24/01:00am 13.8 9.9 5.2 56 4.1 N 15 26 8 14 1005.0 1004.7 0.0
24/12:30am 12.5 9.5 6.1 65 3.1 NNE 11 26 6 14 1005.1 1004.9 0.0
24/12:00am 12.0 9.4 6.1 67 2.8 NNE 9 17 5 9 1005.3 1005.1 0.0
 
Date/Time
CST
Temp
°C
App
Temp
°C
Dew
Point
°C
Rel
Hum
%
Delta-T
°C
Wind Press
QNH
hPa
Press
MSL
hPa
Rain since
9am
mm
Dir  Spd
km/h
Gust
km/h
Spd
kts
Gust
kts
23/11:30pm 12.2 9.3 6.3 67 2.9 NNE 11 15 6 8 1005.5 1005.3 0.0
23/11:00pm 12.7 10.3 7.0 68 2.8 NNE 9 15 5 8 1005.8 1005.6 0.0
23/10:30pm 11.4 9.1 7.5 77 1.9 N 9 15 5 8 1006.3 1006.1 0.0
23/10:00pm 11.4 8.7 7.5 77 1.9 NNE 11 15 6 8 1006.5 1006.3 0.0
23/09:30pm 11.8 8.8 7.7 76 2.0 NE 13 17 7 9 1006.6 1006.4 0.0
23/09:00pm 11.4 9.1 7.5 77 1.9 NE 9 13 5 7 1006.7 1006.5 0.0
23/08:30pm 11.8 9.5 7.3 74 2.2 NNE 9 13 5 7 1006.9 1006.7 0.0
23/08:00pm 12.3 9.2 7.4 72 2.4 NE 13 19 7 10 1006.8 1006.6 0.0
23/07:30pm 12.9 10.2 7.4 69 2.7 NE 11 17 6 9 1006.9 1006.7 0.0
23/07:00pm 13.0 10.8 7.7 70 2.7 NE 9 13 5 7 1006.7 1006.5 0.0
23/06:30pm 13.6 11.3 7.6 67 3.0 ENE 9 15 5 8 1006.5 1006.3 0.0
23/06:00pm 14.1 12.4 7.6 65 3.3 NNE 6 7 3 4 1006.5 1006.3 0.0
23/05:30pm 15.3 13.5 8.1 62 3.7 NNW 7 9 4 5 1006.7 1006.5 0.0
23/05:00pm 15.5 13.3 8.0 61 3.8 WNW 9 15 5 8 1006.9 1006.7 0.0
23/04:30pm 15.9 12.6 7.9 59 4.1 W 15 24 8 13 1007.0 1006.8 0.0
23/04:00pm 17.4 14.9 9.8 61 4.1 WNW 13 20 7 11 1007.0 1006.8 0.0
23/03:30pm 17.6 14.5 7.4 51 5.2 N 13 26 7 14 1007.0 1006.8 0.0
23/03:00pm 17.2 13.4 7.5 53 5.0 NNW 17 28 9 15 1007.2 1007.0 0.0
23/02:30pm 17.5 13.8 7.8 53 5.0 NNW 17 26 9 14 1007.7 1007.5 0.0
23/02:00pm 17.3 14.1 6.8 50 5.3 N 13 19 7 10 1007.9 1007.7 0.0
23/01:30pm 17.0 14.0 7.6 54 4.8 NNW 13 20 7 11 1008.3 1008.1 0.0
23/01:00pm 16.6 13.1 7.3 54 4.7 NNW 15 24 8 13 1009.0 1008.8 0.0
23/12:30pm 16.0 12.3 6.4 53 4.8 NNW 15 24 8 13 1009.4 1009.2 0.0
23/12:00pm 15.8 12.1 6.5 54 4.6 NNW 15 20 8 11 1009.9 1009.8 0.0
23/11:30am 15.3 11.3 6.6 56 4.3 NNW 17 24 9 13 1010.3 1010.2 0.0
23/11:00am 14.8 11.1 6.1 56 4.3 NNW 15 24 8 13 1010.9 1010.7 0.0
23/10:30am 14.2 10.6 6.6 60 3.8 NNW 15 22 8 12 1011.3 1011.1 0.0
23/10:00am 14.1 10.8 6.2 59 3.9 NNW 13 20 7 11 1011.6 1011.4 0.0

Latest Capital City Observations: Canberra | Sydney | Melbourne | Brisbane | Adelaide | Perth | Hobart | Darwin

Other Formats:

Comma delimited format used in spreadsheet applications
http://www.bom.gov.au/fwo/IDS60901/IDS60901.94683.axf

JavaScript Object Notation format (JSON) in row-major order
http://www.bom.gov.au/fwo/IDS60901/IDS60901.94683.json